Time;durP1;ratioP1;P1;durP2;ratioP2;P2;SDS_P1;SDS_P2;PMS_P1;PMS_P2;Temp;Humidity;BMP_temperature;BMP_pressure;BME280_temperature;BME280_humidity;BME280_pressure;Samples;Min_cycle;Max_cycle;Signal;HPM_P1;HPM_P2
2022/12/21 00:01:26;;;;;;;14.60;10.43;;;;;;;10.48;75.67;101005.22;5107590;28;20071;-66
2022/12/21 00:03:58;;;;;;;17.40;10.90;;;;;;;10.48;75.83;101007.91;5108425;28;20048;-65
2022/12/21 00:06:28;;;;;;;15.57;10.13;;;;;;;10.46;75.86;101001.94;5106065;28;20132;-66
2022/12/21 00:08:59;;;;;;;13.52;9.98;;;;;;;10.47;75.67;100995.53;5099509;28;20048;-65
2022/12/21 00:11:28;;;;;;;15.48;10.65;;;;;;;10.46;75.96;100983.13;5104916;28;20520;-66
2022/12/21 00:13:57;;;;;;;14.73;10.63;;;;;;;10.45;75.84;100990.38;5095450;28;20467;-66
2022/12/21 00:16:27;;;;;;;17.83;10.93;;;;;;;10.44;75.57;101002.97;5110610;28;20044;-66
2022/12/21 00:18:58;;;;;;;16.02;10.52;;;;;;;10.43;75.71;101003.19;5103284;28;20047;-66
2022/12/21 00:21:28;;;;;;;12.63;9.82;;;;;;;10.40;75.36;101001.75;5104752;28;20044;-66
2022/12/21 00:23:58;;;;;;;13.57;10.60;;;;;;;10.41;75.54;100998.03;5103985;28;20048;-66
2022/12/21 00:26:28;;;;;;;13.77;10.15;;;;;;;10.42;75.69;101002.38;5107347;28;20044;-66
2022/12/21 00:28:56;;;;;;;15.45;11.00;;;;;;;10.41;75.60;100992.66;5103812;28;20058;-66
2022/12/21 00:31:26;;;;;;;15.10;10.60;;;;;;;10.40;75.58;100984.84;5110084;28;20594;-66
2022/12/21 00:33:55;;;;;;;15.68;10.30;;;;;;;10.40;75.72;100990.22;5104069;28;20063;-66
2022/12/21 00:36:26;;;;;;;15.48;10.60;;;;;;;10.34;75.33;100983.03;5114158;28;20051;-66
2022/12/21 00:38:54;;;;;;;16.38;11.63;;;;;;;10.39;75.58;100989.41;5106980;28;20565;-66
2022/12/21 00:41:23;;;;;;;15.85;11.10;;;;;;;10.38;75.63;101001.19;5107208;28;20120;-66
2022/12/21 00:43:53;;;;;;;18.02;11.23;;;;;;;10.37;75.50;100999.53;5098007;28;20103;-66
2022/12/21 00:46:22;;;;;;;17.38;11.48;;;;;;;10.37;75.65;100999.53;5095270;28;20053;-66
2022/12/21 00:48:51;;;;;;;17.75;11.35;;;;;;;10.37;75.58;101001.41;5103103;28;20052;-66
2022/12/21 00:51:20;;;;;;;19.23;10.85;;;;;;;10.36;75.62;101007.81;5106789;28;20071;-64
2022/12/21 00:53:50;;;;;;;14.13;10.93;;;;;;;10.35;75.75;101012.38;5101019;28;20050;-66
2022/12/21 00:56:19;;;;;;;17.58;11.35;;;;;;;10.29;75.26;100999.78;5108458;28;20076;-66
2022/12/21 00:58:48;;;;;;;15.20;11.15;;;;;;;10.33;75.62;101011.75;5102219;28;20130;-65
2022/12/21 01:01:17;;;;;;;15.55;11.88;;;;;;;10.34;75.76;101010.72;5106188;28;20048;-66
2022/12/21 01:03:46;;;;;;;16.33;12.13;;;;;;;10.35;75.24;101022.28;5106207;28;20147;-66
2022/12/21 01:06:15;;;;;;;17.52;11.38;;;;;;;10.33;75.36;101019.00;5110867;28;20390;-66
2022/12/21 01:08:43;;;;;;;15.55;10.77;;;;;;;10.33;75.20;101016.31;5100256;28;20142;-66
2022/12/21 01:11:14;;;;;;;15.52;11.30;;;;;;;10.33;75.40;101030.56;5104030;28;20047;-66
2022/12/21 01:13:42;;;;;;;16.17;11.43;;;;;;;10.33;75.51;101035.13;5107466;28;20147;-66
2022/12/21 01:16:13;;;;;;;17.90;11.38;;;;;;;10.32;75.37;101030.78;5093255;28;20219;-66
2022/12/21 01:18:41;;;;;;;17.63;10.85;;;;;;;10.31;75.75;101035.31;5103430;28;20040;-66
2022/12/21 01:21:14;;;;;;;15.85;12.07;;;;;;;10.31;75.67;101029.94;5114685;28;20131;-65
2022/12/21 01:23:43;;;;;;;17.88;12.18;;;;;;;10.28;75.58;101019.63;5092677;28;20044;-66
2022/12/21 01:26:12;;;;;;;16.52;11.77;;;;;;;10.32;75.60;101022.72;5104658;28;21462;-65
2022/12/21 01:28:40;;;;;;;16.83;12.32;;;;;;;10.32;75.31;101014.66;5103695;28;20115;-65
2022/12/21 01:31:08;;;;;;;17.40;11.40;;;;;;;10.31;75.39;101015.69;5108039;28;20069;-65
2022/12/21 01:33:36;;;;;;;20.25;12.27;;;;;;;10.32;75.18;101020.03;5108504;28;20082;-65
2022/12/21 01:36:05;;;;;;;15.70;11.40;;;;;;;10.31;75.19;101021.06;5102648;28;20175;-65
2022/12/21 01:38:33;;;;;;;20.30;13.82;;;;;;;10.31;75.38;101026.44;5101982;28;20052;-65
2022/12/21 01:41:01;;;;;;;17.70;11.68;;;;;;;10.30;75.50;101031.00;5104420;28;20078;-66
2022/12/21 01:43:49;;;;;;;19.80;12.35;;;;;;;10.30;75.30;101033.69;5099714;28;20044;-66
2022/12/21 01:46:22;;;;;;;17.83;12.80;;;;;;;10.29;75.39;101029.34;5107343;28;20067;-66
2022/12/21 01:48:56;;;;;;;21.35;13.23;;;;;;;10.30;75.32;101030.16;5106034;28;20088;-66
2022/12/21 01:51:24;;;;;;;17.48;12.75;;;;;;;10.30;75.53;101033.69;5114227;28;20496;-66
2022/12/21 01:53:56;;;;;;;19.60;13.32;;;;;;;10.30;75.51;101030.16;5094422;28;20059;-66
2022/12/21 01:56:31;;;;;;;20.80;13.60;;;;;;;10.22;75.21;101012.44;5104309;28;20059;-66
2022/12/21 01:59:08;;;;;;;22.45;13.15;;;;;;;10.28;75.42;101027.69;5101471;28;20044;-67
2022/12/21 02:01:36;;;;;;;19.73;14.07;;;;;;;10.28;75.60;101034.94;5101275;28;20047;-66
2022/12/21 02:04:06;;;;;;;21.10;14.05;;;;;;;10.27;75.58;101030.59;5102276;28;20064;-66
2022/12/21 02:06:38;;;;;;;20.33;13.40;;;;;;;10.25;75.30;101022.75;5103478;28;20051;-65
2022/12/21 02:09:07;;;;;;;19.70;13.60;;;;;;;10.25;75.49;101028.13;5102405;28;20146;-66
2022/12/21 02:11:34;;;;;;;19.58;14.20;;;;;;;10.26;75.54;101024.41;5103775;28;20040;-66
2022/12/21 02:14:03;;;;;;;20.17;13.25;;;;;;;10.23;75.44;101019.47;5100405;28;20159;-65
2022/12/21 02:16:43;;;;;;;20.67;14.25;;;;;;;10.24;75.37;101014.91;5103669;28;20052;-66
2022/12/21 02:19:47;;;;;;;22.70;13.82;;;;;;;10.23;75.41;101029.38;5102308;28;20059;-66
2022/12/21 02:22:22;;;;;;;20.52;13.68;;;;;;;10.23;75.57;101024.00;5101493;28;20416;-66
2022/12/21 02:25:29;;;;;;;17.27;12.43;;;;;;;10.21;75.13;101021.53;5094991;28;20036;-65
2022/12/21 02:28:46;;;;;;;17.10;13.52;;;;;;;10.22;75.39;101030.41;5089282;28;20044;-66
2022/12/21 02:31:25;;;;;;;19.23;13.07;;;;;;;10.22;75.31;101023.19;5102453;28;20043;-65
2022/12/21 02:34:09;;;;;;;18.45;13.85;;;;;;;10.21;75.40;101016.16;5105030;28;20048;-66
2022/12/21 02:36:44;;;;;;;18.77;13.13;;;;;;;10.20;75.17;101027.13;5092827;28;20140;-66
2022/12/21 02:39:23;;;;;;;18.60;13.63;;;;;;;10.19;75.44;101020.91;5097955;28;20054;-66
2022/12/21 02:42:01;;;;;;;16.52;12.68;;;;;;;10.19;75.37;101025.44;5106045;28;20050;-66
2022/12/21 02:44:50;;;;;;;21.40;13.98;;;;;;;10.19;75.02;101033.50;5107709;28;20167;-66
2022/12/21 02:47:27;;;;;;;18.15;12.73;;;;;;;10.17;75.36;101022.97;5100899;28;20055;-66
2022/12/21 02:50:00;;;;;;;19.88;14.05;;;;;;;10.17;75.26;101019.47;5100066;28;20132;-66
2022/12/21 02:52:35;;;;;;;20.75;14.25;;;;;;;10.15;75.47;101019.69;5107459;28;20136;-66
2022/12/21 02:55:03;;;;;;;17.95;13.10;;;;;;;10.13;75.32;101024.44;5102348;28;20702;-66
2022/12/21 02:57:32;;;;;;;18.98;13.73;;;;;;;10.17;75.09;101031.03;5100257;28;20067;-66
2022/12/21 03:00:03;;;;;;;25.45;13.80;;;;;;;10.16;74.85;101023.19;5098747;28;20039;-66
2022/12/21 03:03:47;;;;;;;17.77;13.02;;;;;;;10.16;74.85;101013.28;5096002;28;20108;-66
2022/12/21 03:05:51;;;;;;;18.65;13.63;;;;;;;10.16;75.23;101007.06;5102245;28;20109;-66
2022/12/21 03:08:28;;;;;;;20.65;12.15;;;;;;;10.16;74.97;101015.97;5097453;28;20365;-66
2022/12/21 03:11:01;;;;;;;17.08;12.70;;;;;;;10.16;75.45;101017.81;5098036;28;20055;-67
2022/12/21 03:13:38;;;;;;;21.58;13.48;;;;;;;10.15;75.48;101008.94;5103710;28;20135;-66
2022/12/21 03:16:14;;;;;;;18.17;14.30;;;;;;;10.15;75.27;101018.84;5104375;28;20050;-66
2022/12/21 03:18:54;;;;;;;18.73;13.68;;;;;;;10.15;75.59;101002.75;5106721;28;20575;-66
2022/12/21 03:21:26;;;;;;;21.20;13.95;;;;;;;10.15;75.60;101000.06;5104035;28;20055;-66
2022/12/21 03:24:01;;;;;;;17.98;13.43;;;;;;;10.15;75.56;101006.25;5105115;28;20054;-66
2022/12/21 03:26:33;;;;;;;19.73;13.00;;;;;;;10.14;75.47;101007.28;5100684;28;20044;-66
2022/12/21 03:29:02;;;;;;;18.98;13.48;;;;;;;10.15;75.32;100989.31;5105575;28;20103;-65
2022/12/21 03:31:36;;;;;;;18.50;12.93;;;;;;;10.14;75.52;100993.88;5105038;28;21342;-66
2022/12/21 03:34:13;;;;;;;17.15;13.10;;;;;;;10.14;75.22;100993.03;5110667;28;20048;-65
2022/12/21 03:36:47;;;;;;;16.70;12.38;;;;;;;10.11;75.17;100995.13;5111990;28;20143;-65
2022/12/21 03:39:20;;;;;;;16.08;12.55;;;;;;;10.13;75.43;101010.19;5106799;28;20052;-66
2022/12/21 03:41:52;;;;;;;21.63;13.77;;;;;;;10.07;75.53;101007.31;5104624;28;20048;-65
2022/12/21 03:44:27;;;;;;;16.05;12.20;;;;;;;10.13;75.19;101007.50;5100470;28;20134;-66
2022/12/21 03:46:58;;;;;;;20.67;12.82;;;;;;;10.11;75.38;101013.91;5102898;28;20048;-65
2022/12/21 03:49:33;;;;;;;16.95;11.35;;;;;;;10.08;75.27;101000.91;5112597;28;20047;-65
2022/12/21 03:52:06;;;;;;;18.40;12.13;;;;;;;10.11;75.22;100994.28;5107402;28;20047;-65
2022/12/21 03:54:40;;;;;;;16.42;11.80;;;;;;;10.11;75.51;101005.03;5112575;28;20044;-65
2022/12/21 03:57:10;;;;;;;16.08;12.88;;;;;;;10.09;75.44;100997.19;5108803;28;20055;-65
2022/12/21 03:59:41;;;;;;;15.73;12.32;;;;;;;10.09;75.48;101002.56;5100883;28;20358;-66
2022/12/21 04:02:15;;;;;;;17.05;12.50;;;;;;;10.09;75.20;100991.81;5110555;28;20115;-65
2022/12/21 04:04:53;;;;;;;16.23;11.95;;;;;;;10.10;75.09;101012.25;5104057;28;20040;-65
2022/12/21 04:07:24;;;;;;;17.30;12.68;;;;;;;10.08;75.28;101006.28;5109553;28;20058;-65
2022/12/21 04:09:57;;;;;;;19.08;12.55;;;;;;;10.09;75.48;100999.06;5096890;28;20052;-65
2022/12/21 04:12:37;;;;;;;19.00;12.27;;;;;;;10.07;74.88;100996.59;5097088;28;20045;-65
2022/12/21 04:15:08;;;;;;;14.25;11.38;;;;;;;10.06;74.95;100986.06;5102445;28;20043;-65
2022/12/21 04:17:37;;;;;;;14.98;10.40;;;;;;;10.02;75.31;100987.53;5106074;28;20044;-66
2022/12/21 04:20:07;;;;;;;15.23;10.50;;;;;;;10.05;75.29;100997.84;5105656;28;20107;-65
2022/12/21 04:28:25;;;;;;;14.32;10.52;;;;;;;10.03;75.26;100991.84;5021345;28;20064;-65
2022/12/21 04:31:13;;;;;;;14.10;9.95;;;;;;;10.03;74.96;101000.72;5021129;28;20758;-67
2022/12/21 04:33:41;;;;;;;15.00;9.63;;;;;;;10.03;75.04;100991.84;5022001;28;20046;-66
2022/12/21 04:38:55;;;;;;;16.90;10.60;;;;;;;10.02;74.67;100984.84;5021491;28;20060;-67
2022/12/21 04:41:23;;;;;;;17.88;10.25;;;;;;;10.01;74.96;100984.00;5023017;28;20395;-65
2022/12/21 04:43:50;;;;;;;15.27;10.80;;;;;;;10.00;74.67;100985.06;5014833;28;20049;-65
2022/12/21 04:46:19;;;;;;;13.82;10.00;;;;;;;10.00;75.08;100985.06;5028221;28;20063;-65
2022/12/21 04:48:47;;;;;;;14.65;9.98;;;;;;;10.00;75.01;100976.19;5023170;28;20042;-65
2022/12/21 04:51:18;;;;;;;15.13;9.57;;;;;;;9.99;75.12;100972.66;5021669;28;20054;-65
2022/12/21 04:53:47;;;;;;;15.18;10.07;;;;;;;9.98;74.97;100973.72;5020714;28;20060;-66
2022/12/21 04:56:15;;;;;;;13.50;9.70;;;;;;;9.98;74.62;100970.19;5031771;28;20113;-65
2022/12/21 04:58:44;;;;;;;13.25;9.30;;;;;;;9.95;74.91;100970.63;5020007;28;20069;-66
2022/12/21 05:01:13;;;;;;;14.30;9.60;;;;;;;9.97;74.57;100971.25;5023319;28;20042;-66
2022/12/21 05:03:42;;;;;;;13.70;9.35;;;;;;;9.97;74.65;100973.91;5099498;28;20048;-66
2022/12/21 05:06:11;;;;;;;13.40;9.85;;;;;;;9.97;75.14;100973.91;5108306;28;20070;-66
2022/12/21 05:08:40;;;;;;;14.65;9.38;;;;;;;9.96;74.75;100978.47;5105058;28;20044;-65
2022/12/21 05:11:10;;;;;;;15.80;9.77;;;;;;;9.97;75.15;100987.34;5107411;28;20048;-66
2022/12/21 05:13:38;;;;;;;13.48;9.68;;;;;;;9.97;74.86;100990.03;5104249;28;20131;-66
2022/12/21 05:16:07;;;;;;;12.25;8.82;;;;;;;9.97;74.69;100985.47;5106143;28;20067;-66
2022/12/21 05:18:35;;;;;;;15.18;9.88;;;;;;;9.95;74.96;100976.00;5102427;28;20532;-65
2022/12/21 05:21:03;;;;;;;15.43;9.35;;;;;;;9.97;74.75;100971.25;5094104;28;20130;-65
2022/12/21 05:23:31;;;;;;;15.55;8.77;;;;;;;9.96;74.84;100974.97;5101585;28;20040;-66
2022/12/21 05:26:02;;;;;;;14.48;8.88;;;;;;;9.96;74.56;100969.59;5102812;28;20408;-66
2022/12/21 05:28:41;;;;;;;14.05;9.05;;;;;;;9.95;75.02;100976.81;5100536;28;20052;-66
2022/12/21 05:31:09;;;;;;;13.90;9.40;;;;;;;9.94;74.84;100977.03;5104692;28;20071;-66
2022/12/21 05:33:37;;;;;;;15.15;9.50;;;;;;;9.94;74.50;100977.84;5101953;28;20052;-66
2022/12/21 05:36:08;;;;;;;14.02;9.27;;;;;;;9.93;74.63;100976.22;5105882;28;20068;-67
2022/12/21 05:38:36;;;;;;;12.50;7.88;;;;;;;9.94;74.59;100977.84;5101112;28;20049;-66
2022/12/21 05:41:05;;;;;;;13.32;8.40;;;;;;;9.92;74.53;100976.44;5096558;28;20040;-66
2022/12/21 05:43:33;;;;;;;14.50;8.82;;;;;;;9.92;74.25;100979.09;5107304;28;20142;-66
2022/12/21 05:46:01;;;;;;;11.48;7.38;;;;;;;9.91;74.82;100972.91;5102414;28;20112;-66
2022/12/21 05:48:30;;;;;;;11.90;7.03;;;;;;;9.91;74.72;100966.72;5100377;28;20052;-66
2022/12/21 05:50:58;;;;;;;14.25;6.97;;;;;;;9.90;74.74;100965.06;5107408;28;20044;-66
2022/12/21 05:53:25;;;;;;;9.48;6.88;;;;;;;9.90;74.55;100970.44;5105663;28;20052;-66
2022/12/21 05:55:53;;;;;;;12.52;6.95;;;;;;;9.90;74.76;100973.13;5102761;28;20099;-66
2022/12/21 05:58:22;;;;;;;12.63;6.40;;;;;;;9.90;74.88;100973.13;5101579;28;20048;-67
2022/12/21 06:00:52;;;;;;;11.27;6.60;;;;;;;9.88;74.33;100973.34;5097411;28;20076;-67
2022/12/21 06:03:20;;;;;;;9.18;6.47;;;;;;;9.88;74.69;100969.84;5098682;28;20069;-67
2022/12/21 06:05:48;;;;;;;15.65;6.78;;;;;;;9.87;74.59;100977.06;5098653;28;20036;-67
2022/12/21 06:08:16;;;;;;;10.48;6.20;;;;;;;9.79;74.33;100958.53;5096175;28;20052;-67
2022/12/21 06:10:44;;;;;;;10.05;6.15;;;;;;;9.85;74.56;100971.09;5098177;28;20528;-69
2022/12/21 06:13:12;;;;;;;10.63;6.53;;;;;;;9.85;74.54;100968.41;5106681;28;20048;-66
2022/12/21 06:15:41;;;;;;;10.15;5.18;;;;;;;9.85;74.31;100962.22;5103878;28;20120;-66
2022/12/21 06:18:09;;;;;;;12.38;6.70;;;;;;;9.81;74.61;100953.75;5103928;28;20048;-66
2022/12/21 06:20:37;;;;;;;12.60;6.05;;;;;;;9.84;73.88;100957.88;5101747;28;20106;-65
2022/12/21 06:23:04;;;;;;;8.75;5.13;;;;;;;9.83;74.42;100961.59;5108127;28;20056;-65
2022/12/21 06:25:33;;;;;;;9.13;5.00;;;;;;;9.82;74.21;100952.72;5116234;28;20124;-64
2022/12/21 06:28:00;;;;;;;9.65;5.60;;;;;;;9.83;74.44;100961.59;5108125;28;20063;-65
2022/12/21 06:30:28;;;;;;;8.00;5.22;;;;;;;9.81;74.02;100945.72;5094544;28;20052;-66
2022/12/21 06:32:57;;;;;;;13.63;5.30;;;;;;;9.82;74.25;100954.59;5104866;28;20040;-66
2022/12/21 06:35:25;;;;;;;8.32;5.07;;;;;;;9.79;74.27;100948.59;5106827;28;20058;-67
2022/12/21 06:37:53;;;;;;;7.93;5.10;;;;;;;9.79;74.18;100959.34;5101400;28;20043;-67
2022/12/21 06:40:21;;;;;;;12.73;6.07;;;;;;;9.79;74.00;100964.72;5099616;28;20472;-67
2022/12/21 06:42:49;;;;;;;8.68;5.68;;;;;;;9.78;74.08;100963.06;5085792;28;20094;-64
2022/12/21 06:45:16;;;;;;;12.35;5.47;;;;;;;9.77;74.01;100958.72;5094671;28;20195;-66
2022/12/21 06:47:44;;;;;;;7.88;5.13;;;;;;;9.78;74.23;100968.44;5103302;28;20112;-66
2022/12/21 06:50:13;;;;;;;12.20;6.60;;;;;;;9.78;74.22;100970.28;5101446;28;20048;-65
2022/12/21 06:52:41;;;;;;;9.40;5.35;;;;;;;9.77;74.25;100972.16;5102327;28;20036;-65
2022/12/21 06:55:09;;;;;;;7.60;5.28;;;;;;;9.78;73.88;100983.72;5099977;28;20111;-67
2022/12/21 06:57:37;;;;;;;9.65;5.93;;;;;;;9.77;74.24;100976.69;5101956;28;20534;-67
2022/12/21 07:00:06;;;;;;;10.90;5.93;;;;;;;9.77;74.11;100982.06;4747017;28;10000146;-65
2022/12/21 07:02:33;;;;;;;9.50;5.70;;;;;;;9.77;74.00;100980.22;4740134;28;9999997;-65
2022/12/21 07:05:02;;;;;;;8.60;5.30;;;;;;;9.76;73.90;100989.28;5097258;28;20059;-66
2022/12/21 07:07:31;;;;;;;11.07;5.78;;;;;;;9.77;74.11;100992.81;5097986;28;20056;-67
2022/12/21 07:09:58;;;;;;;13.52;6.20;;;;;;;9.75;74.10;100987.66;5094606;28;20120;-66
2022/12/21 07:12:26;;;;;;;8.55;4.78;;;;;;;9.76;74.35;100983.09;5098946;28;20052;-65
2022/12/21 07:14:54;;;;;;;8.45;5.03;;;;;;;9.75;74.33;100982.28;5098602;28;20542;-62
2022/12/21 07:17:21;;;;;;;10.63;5.85;;;;;;;9.74;74.33;100987.88;5098078;28;20048;-62
2022/12/21 07:19:49;;;;;;;9.00;5.07;;;;;;;9.73;74.44;100997.78;5102078;28;20515;-61
2022/12/21 07:22:17;;;;;;;11.10;5.30;;;;;;;9.74;73.84;100995.91;5101249;28;20385;-62
2022/12/21 07:24:46;;;;;;;9.10;5.43;;;;;;;9.74;74.11;100998.59;5094477;28;20131;-61
2022/12/21 07:27:14;;;;;;;10.75;5.32;;;;;;;9.73;73.86;100992.41;5089248;28;20143;-61
2022/12/21 07:29:41;;;;;;;7.63;5.13;;;;;;;9.74;74.05;100991.38;5100773;28;20052;-61
2022/12/21 07:32:09;;;;;;;9.35;4.93;;;;;;;9.74;73.91;100998.59;5103155;28;20149;-62
2022/12/21 07:34:37;;;;;;;8.32;4.53;;;;;;;9.74;74.14;101003.97;5102089;28;20468;-62
2022/12/21 07:37:05;;;;;;;10.23;5.75;;;;;;;9.68;74.45;101019.06;5100539;28;20059;-64
2022/12/21 07:39:33;;;;;;;10.40;5.30;;;;;;;9.68;74.54;101016.38;4745921;28;10000030;-63
2022/12/21 07:42:02;;;;;;;8.93;5.43;;;;;;;9.68;74.74;101027.09;5099272;28;20072;-63
2022/12/21 07:44:37;;;;;;;8.25;5.13;;;;;;;9.68;74.89;101032.47;5098119;28;20044;-64
2022/12/21 07:47:05;;;;;;;7.32;4.90;;;;;;;9.68;74.47;101031.66;5086271;28;20050;-64
2022/12/21 07:49:34;;;;;;;7.63;4.93;;;;;;;9.69;74.75;101031.44;5088273;28;20109;-63
2022/12/21 07:52:01;;;;;;;9.15;4.95;;;;;;;9.67;74.56;101033.50;5097907;28;20155;-63
2022/12/21 07:54:29;;;;;;;8.73;5.60;;;;;;;9.67;74.48;101041.56;5098148;28;20058;-63
2022/12/21 07:56:58;;;;;;;12.13;6.10;;;;;;;9.68;74.36;101050.44;5096600;28;20051;-63
2022/12/21 07:59:27;;;;;;;9.02;5.82;;;;;;;9.67;74.82;101040.75;5098964;28;20147;-63
2022/12/21 08:01:55;;;;;;;9.35;5.75;;;;;;;9.66;74.71;101049.81;5091998;28;20044;-63
2022/12/21 08:04:23;;;;;;;10.38;5.30;;;;;;;9.66;74.57;101053.31;5100091;28;20043;-63
2022/12/21 08:06:51;;;;;;;10.18;5.53;;;;;;;9.63;74.04;101045.69;5104066;28;20054;-63
2022/12/21 08:09:19;;;;;;;13.60;5.75;;;;;;;9.65;74.36;101051.69;5093330;28;20052;-63
2022/12/21 08:11:47;;;;;;;10.15;5.15;;;;;;;9.66;74.27;101047.97;5099793;28;20052;-63
2022/12/21 08:14:15;;;;;;;10.95;5.78;;;;;;;9.65;74.56;101035.59;5107891;28;20079;-64
2022/12/21 08:16:44;;;;;;;7.25;4.93;;;;;;;9.66;74.66;101034.53;5100187;28;20565;-63
2022/12/21 08:19:12;;;;;;;8.57;5.25;;;;;;;9.66;74.20;101025.66;5101786;28;20362;-62
2022/12/21 08:21:40;;;;;;;8.52;5.05;;;;;;;9.64;74.18;101028.56;5110653;28;20504;-62
2022/12/21 08:24:08;;;;;;;13.65;5.55;;;;;;;9.64;74.33;101043.84;5108443;28;20047;-62
2022/12/21 08:26:36;;;;;;;7.75;5.18;;;;;;;9.65;74.21;101050.84;5100334;28;20055;-62
2022/12/21 08:29:05;;;;;;;11.35;5.40;;;;;;;9.63;74.52;101044.88;5099707;28;20103;-63
2022/12/21 08:31:33;;;;;;;8.50;5.10;;;;;;;9.63;74.20;101045.69;5102364;28;20040;-63
2022/12/21 08:34:02;;;;;;;10.52;5.82;;;;;;;9.63;74.27;101059.13;5106114;28;20048;-61
2022/12/21 08:36:31;;;;;;;10.85;5.78;;;;;;;9.63;74.21;101047.56;5100563;28;20132;-62
2022/12/21 08:39:00;;;;;;;10.80;5.50;;;;;;;9.61;74.26;101046.94;5101795;28;20063;-61
2022/12/21 08:41:37;;;;;;;10.95;5.25;;;;;;;9.62;74.42;101057.47;5101254;28;20048;-61
2022/12/21 08:44:05;;;;;;;8.93;4.80;;;;;;;9.62;73.98;101056.66;5096295;28;20048;-61
2022/12/21 08:46:33;;;;;;;10.73;6.05;;;;;;;9.63;74.46;101055.59;5098400;28;20044;-60
2022/12/21 08:49:03;;;;;;;11.45;5.45;;;;;;;9.68;74.15;101051.25;5101289;28;20052;-61
2022/12/21 08:51:31;;;;;;;12.57;5.82;;;;;;;9.79;73.70;101063.19;5101897;28;20629;-61
2022/12/21 08:53:59;;;;;;;10.98;5.78;;;;;;;9.94;73.42;101057.56;5105651;28;20078;-62
2022/12/21 08:56:27;;;;;;;10.02;5.10;;;;;;;10.08;72.94;101051.94;5110922;28;20512;-62
2022/12/21 08:58:54;;;;;;;10.43;5.85;;;;;;;10.20;72.79;101052.13;5099959;28;20146;-63
2022/12/21 09:01:24;;;;;;;12.88;6.63;;;;;;;10.36;71.90;101045.44;5104033;28;20048;-62
2022/12/21 09:03:52;;;;;;;11.15;5.45;;;;;;;10.50;71.57;101052.34;5093210;28;20047;-62
2022/12/21 09:06:21;;;;;;;10.68;6.30;;;;;;;10.67;71.00;101055.34;5103292;28;20062;-62
2022/12/21 09:08:49;;;;;;;11.35;6.20;;;;;;;10.75;70.42;101045.13;5103857;28;20108;-63
2022/12/21 09:11:19;;;;;;;12.18;6.25;;;;;;;10.93;70.03;101057.81;5101729;28;20044;-62
2022/12/21 09:13:56;;;;;;;10.38;5.60;;;;;;;11.03;69.51;101052.78;5098769;28;20047;-62
2022/12/21 09:16:25;;;;;;;8.38;5.53;;;;;;;11.17;68.99;101049.97;5101275;28;20056;-64
2022/12/21 09:18:53;;;;;;;9.05;5.95;;;;;;;11.24;68.93;101043.50;5104078;28;20177;-62
2022/12/21 09:21:24;;;;;;;13.93;6.80;;;;;;;11.28;68.59;101044.69;5102676;28;20048;-62
2022/12/21 09:23:52;;;;;;;11.32;5.55;;;;;;;11.32;68.49;101043.22;5102609;28;20043;-60
2022/12/21 09:26:20;;;;;;;9.80;5.60;;;;;;;11.34;68.38;101037.59;5092998;28;20048;-63
2022/12/21 09:28:48;;;;;;;9.82;6.00;;;;;;;11.36;68.26;101046.28;5087377;28;20056;-63
2022/12/21 09:31:18;;;;;;;10.75;6.22;;;;;;;11.40;68.26;101053.69;5095991;28;20171;-62
2022/12/21 09:33:51;;;;;;;13.23;6.53;;;;;;;11.45;68.06;101047.63;5092055;28;20102;-62
2022/12/21 09:36:20;;;;;;;10.68;5.28;;;;;;;11.46;67.96;101041.22;5091397;28;20054;-63
2022/12/21 09:38:49;;;;;;;10.13;5.57;;;;;;;11.50;67.96;101046.97;5106252;28;20044;-62
2022/12/21 09:41:44;;;;;;;9.65;5.63;;;;;;;11.52;67.79;101051.09;5105579;28;20051;-62
2022/12/21 09:44:35;;;;;;;13.07;5.82;;;;;;;11.52;67.65;101050.25;5097716;28;20189;-62
2022/12/21 09:47:09;;;;;;;12.30;5.47;;;;;;;11.53;67.65;101054.59;5090053;28;20131;-62
2022/12/21 09:49:41;;;;;;;7.85;5.70;;;;;;;11.57;67.44;101064.69;5085632;28;20052;-64
2022/12/21 09:52:18;;;;;;;9.13;5.40;;;;;;;11.62;67.35;101077.47;5099550;28;20094;-64
2022/12/21 09:54:54;;;;;;;11.75;5.22;;;;;;;11.62;67.20;101069.41;5102318;28;20128;-64
2022/12/21 09:57:26;;;;;;;11.20;5.55;;;;;;;11.65;67.31;101064.41;5103325;28;20055;-64
2022/12/21 09:59:54;;;;;;;12.65;4.80;;;;;;;11.67;67.60;101074.94;5053648;28;20064;-64
2022/12/21 10:02:35;;;;;;;11.73;5.78;;;;;;;11.60;67.84;101075.00;5061713;28;20049;-64
2022/12/21 10:05:16;;;;;;;9.07;5.63;;;;;;;11.45;68.18;101074.56;5069156;28;20466;-64
2022/12/21 10:08:20;;;;;;;10.15;5.13;;;;;;;11.28;68.76;101070.78;5060901;28;20045;-64
2022/12/21 10:10:56;;;;;;;10.70;4.70;;;;;;;11.11;69.50;101072.38;5062844;28;20461;-65
2022/12/21 10:13:34;;;;;;;9.57;5.53;;;;;;;11.00;69.85;101065.84;5059506;28;20053;-64
2022/12/21 10:16:12;;;;;;;10.85;4.70;;;;;;;10.87;70.41;101066.75;5061952;28;20053;-65
2022/12/21 10:18:49;;;;;;;10.57;4.80;;;;;;;10.79;70.61;101068.91;5061495;28;20060;-63
2022/12/21 10:21:21;;;;;;;;;;;;;;;10.71;70.88;101075.34;5067547;28;20049;-64
2022/12/21 10:23:53;;;;;;;13.32;4.85;;;;;;;10.65;71.20;101082.44;5061731;28;19943;-65
2022/12/21 10:26:25;;;;;;;9.38;5.28;;;;;;;10.59;71.48;101085.97;5064430;28;20051;-67
2022/12/21 10:28:59;;;;;;;10.40;5.80;;;;;;;10.54;71.74;101075.06;5058907;28;20047;-65
2022/12/21 10:31:34;;;;;;;12.38;5.82;;;;;;;10.50;72.03;101073.00;5059879;28;20143;-66
2022/12/21 10:34:06;;;;;;;9.80;4.95;;;;;;;10.47;72.00;101084.19;5058876;28;20049;-65
2022/12/21 10:36:36;;;;;;;11.25;5.45;;;;;;;10.40;72.49;101071.63;5056499;28;20049;-62
2022/12/21 10:39:04;;;;;;;11.68;5.20;;;;;;;10.36;72.44;101061.53;5060530;28;20045;-65
2022/12/21 10:41:38;;;;;;;14.35;5.35;;;;;;;10.36;72.30;101066.91;5061697;28;20798;-64
2022/12/21 10:44:06;;;;;;;12.45;6.03;;;;;;;10.34;72.69;101069.00;5056146;28;20053;-64
2022/12/21 10:46:37;;;;;;;11.30;5.10;;;;;;;10.30;72.64;101060.53;4709834;28;10000908;-63
2022/12/21 10:49:16;;;;;;;10.32;5.80;;;;;;;10.29;72.79;101061.56;5058536;28;20080;-62
2022/12/21 10:51:44;;;;;;;13.65;4.75;;;;;;;10.26;72.93;101043.22;5057953;28;20635;-63
2022/12/21 10:54:12;;;;;;;11.30;4.93;;;;;;;10.25;72.99;101043.41;5056087;28;20057;-64
2022/12/21 10:56:46;;;;;;;13.38;5.57;;;;;;;10.25;72.90;101038.03;5060626;28;20124;-66
2022/12/21 10:59:20;;;;;;;9.35;5.30;;;;;;;10.23;73.24;101035.56;5085669;28;20056;-64
2022/12/21 11:01:48;;;;;;;15.63;5.05;;;;;;;10.22;73.29;101033.94;5092218;28;20047;-65
2022/12/21 11:04:18;;;;;;;10.10;4.55;;;;;;;10.21;73.18;101021.53;5098733;28;20056;-64
2022/12/21 11:06:57;;;;;;;14.30;4.85;;;;;;;10.21;73.12;101028.78;5090521;28;20057;-63
2022/12/21 11:09:42;;;;;;;12.10;4.85;;;;;;;10.20;73.31;101027.13;5090666;28;20052;-64
2022/12/21 11:12:20;;;;;;;12.80;5.85;;;;;;;10.20;73.20;101019.06;5104544;28;20040;-64
2022/12/21 11:14:48;;;;;;;12.48;5.25;;;;;;;10.20;73.28;101027.94;5101788;28;20040;-64
2022/12/21 11:17:21;;;;;;;12.40;4.75;;;;;;;10.20;73.29;101033.31;5096159;28;20389;-64
2022/12/21 11:19:52;;;;;;;10.77;5.72;;;;;;;10.16;73.23;101029.38;5093979;28;20048;-62
2022/12/21 11:22:28;;;;;;;15.70;5.00;;;;;;;10.19;73.30;101023.59;5096057;28;20090;-63
2022/12/21 11:25:18;;;;;;;12.95;5.57;;;;;;;10.20;73.40;101027.94;5095307;28;20178;-66
2022/12/21 11:27:50;;;;;;;9.25;5.20;;;;;;;10.21;73.37;101031.47;5091316;28;20247;-65
2022/12/21 11:30:20;;;;;;;10.00;4.10;;;;;;;10.19;73.59;101042.38;5097922;28;20135;-65
2022/12/21 11:32:50;;;;;;;9.88;4.40;;;;;;;10.18;73.19;101019.25;5102376;28;20089;-66
2022/12/21 11:35:19;;;;;;;10.20;4.35;;;;;;;10.19;73.35;101037.00;5094770;28;20044;-67
2022/12/21 11:37:53;;;;;;;9.32;4.88;;;;;;;10.19;73.45;101031.63;5098723;28;20108;-67
2022/12/21 11:40:24;;;;;;;8.77;4.57;;;;;;;10.17;73.25;101025.66;5103298;28;20079;-66
2022/12/21 11:42:56;;;;;;;12.10;5.40;;;;;;;10.17;73.25;101016.78;5095255;28;20048;-65
2022/12/21 11:45:38;;;;;;;10.77;4.67;;;;;;;10.22;73.22;101006.25;5101185;28;20059;-66
2022/12/21 11:48:22;;;;;;;10.38;4.25;;;;;;;10.39;72.69;101005.53;5099734;28;20048;-65